Terminal Aerodrome Forecast
Issued by NWS

Home | Current Version | Previous Version | Text Only | Print | Product List | Glossary Off
Versions: 1 2 3 4 5 6 7 8 9 10 11 12 13 14 15 16 17 18 19 20 21 22 23 24 25 26 27 28 29 30 31 32 33 34 35 36 37 38 39 40 41
000 FTUS41 KBOX 301124 TAFBAF TAF KBAF 301124Z 3012/3112 00000KT P6SM SKC FM302000 01005KT P6SM BKN150 FM310800 VRB03KT P6SM VCSH OVC040 FM311000 08004KT P6SM -SN OVC010=

USA.gov is the U.S. government's official web portal to all federal, state and local government web resources and services.